Time;durP1;ratioP1;P1;durP2;ratioP2;P2;SDS_P1;SDS_P2;PMS_P1;PMS_P2;Temp;Humidity;BMP_temperature;BMP_pressure;BME280_temperature;BME280_humidity;BME280_pressure;Samples;Min_cycle;Max_cycle;Signal;HPM_P1;HPM_P2
2021/06/14 00:00:10;;;;;;;7.47;3.55;;;;;;;14.39;92.51;101850.09;5083047;28;20107;-72
2021/06/14 00:02:41;;;;;;;11.05;3.30;;;;;;;14.17;94.25;101851.47;5065265;28;20388;-72
2021/06/14 00:05:21;;;;;;;9.02;3.60;;;;;;;14.30;93.82;101847.56;5095058;28;20107;-72
2021/06/14 00:07:47;;;;;;;5.10;3.47;;;;;;;14.33;93.96;101851.50;5078883;28;20040;-72
2021/06/14 00:10:13;;;;;;;6.80;3.45;;;;;;;14.32;93.82;101844.53;5091073;28;20032;-72
2021/06/14 00:12:40;;;;;;;7.55;3.50;;;;;;;14.16;94.67;101849.13;5083605;28;20125;-72
2021/06/14 00:15:06;;;;;;;7.70;3.67;;;;;;;14.19;94.51;101832.94;5092173;28;20422;-72
2021/06/14 00:17:32;;;;;;;7.68;3.55;;;;;;;14.08;94.40;101841.94;5084961;28;20044;-72
2021/06/14 00:19:57;;;;;;;8.27;3.40;;;;;;;14.14;94.73;101833.22;5086858;28;20157;-72
2021/06/14 00:22:23;;;;;;;9.25;3.92;;;;;;;14.11;94.75;101833.13;5091790;28;20028;-72
2021/06/14 00:24:49;;;;;;;9.55;3.60;;;;;;;14.23;93.99;101831.09;5092678;28;20038;-72
2021/06/14 00:27:14;;;;;;;10.95;3.75;;;;;;;14.16;94.58;101832.84;5085479;28;22169;-72
2021/06/14 00:29:40;;;;;;;5.82;3.30;;;;;;;13.99;95.77;101833.19;5082307;28;20547;-72
2021/06/14 00:32:06;;;;;;;9.10;3.90;;;;;;;14.18;94.73;101830.59;5085055;28;20120;-72
2021/06/14 00:34:32;;;;;;;10.13;3.60;;;;;;;14.34;94.16;101829.47;5085405;28;20028;-72
2021/06/14 00:36:58;;;;;;;6.95;4.10;;;;;;;14.27;94.07;101837.44;5091316;28;20043;-72
2021/06/14 00:39:23;;;;;;;10.52;3.78;;;;;;;14.17;94.38;101824.38;5090622;28;20075;-72
2021/06/14 00:41:49;;;;;;;7.30;4.47;;;;;;;14.26;94.33;101822.28;5074874;28;20056;-72
2021/06/14 00:44:15;;;;;;;7.20;4.07;;;;;;;14.24;94.30;101824.56;5065980;28;20598;-72
2021/06/14 00:46:40;;;;;;;8.00;3.80;;;;;;;14.18;94.72;101827.88;5084989;28;20020;-72
2021/06/14 00:49:06;;;;;;;6.45;3.67;;;;;;;14.08;95.22;101821.06;5084726;28;20043;-72
2021/06/14 00:51:31;;;;;;;6.55;3.83;;;;;;;13.93;96.03;101819.13;5096717;28;20471;-72
2021/06/14 00:54:00;;;;;;;5.78;3.63;;;;;;;13.98;95.98;101827.00;5089862;28;20059;-72
2021/06/14 00:56:29;;;;;;;7.18;3.60;;;;;;;13.94;95.83;101828.03;5071951;28;20051;-72
2021/06/14 00:58:55;;;;;;;8.30;3.97;;;;;;;13.98;95.64;101821.56;5073417;28;20063;-72
2021/06/14 01:01:21;;;;;;;8.13;3.95;;;;;;;14.02;95.39;101811.63;5085327;28;20103;-72
2021/06/14 01:03:50;;;;;;;8.43;3.90;;;;;;;13.96;95.98;101821.13;5073356;28;20046;-72
2021/06/14 01:06:15;;;;;;;7.47;3.83;;;;;;;13.92;96.23;101820.25;5084809;28;20052;-72
2021/06/14 01:08:48;;;;;;;5.82;4.05;;;;;;;13.85;96.97;101822.78;5091814;28;20032;-72
2021/06/14 01:11:33;;;;;;;5.97;3.72;;;;;;;13.90;97.06;101822.53;5054980;28;20119;-72
2021/06/14 01:14:10;;;;;;;7.00;4.10;;;;;;;13.97;96.64;101830.06;5067538;28;20070;-72
2021/06/14 01:16:44;;;;;;;7.32;3.90;;;;;;;13.70;97.70;101820.84;5061261;28;20532;-72
2021/06/14 01:19:50;;;;;;;6.32;3.80;;;;;;;13.92;97.05;101825.66;5070119;28;20121;-72
2021/06/14 01:22:37;;;;;;;11.30;4.40;;;;;;;13.83;97.18;101819.66;5071448;28;20028;-72
2021/06/14 01:25:07;;;;;;;5.68;3.90;;;;;;;13.91;97.01;101818.69;5080741;28;20028;-72
2021/06/14 01:27:51;;;;;;;12.80;4.53;;;;;;;13.51;98.68;101823.44;5083293;28;20106;-72
2021/06/14 01:30:24;;;;;;;7.32;4.35;;;;;;;13.84;98.40;101813.09;5065642;28;20042;-72
2021/06/14 01:32:52;;;;;;;6.60;4.05;;;;;;;13.77;97.97;101801.28;5089665;28;20081;-72
2021/06/14 01:35:49;;;;;;;9.23;4.60;;;;;;;13.71;98.61;101811.59;5073227;28;20028;-72
2021/06/14 01:38:17;;;;;;;9.07;4.40;;;;;;;13.70;98.05;101818.16;5078668;28;20078;-73
2021/06/14 01:40:49;;;;;;;8.75;4.53;;;;;;;13.66;98.98;101801.03;5066614;28;20036;-72
2021/06/14 01:43:16;;;;;;;11.18;4.55;;;;;;;13.59;99.58;101792.69;5090719;28;20835;-72
2021/06/14 01:45:51;;;;;;;10.55;4.60;;;;;;;13.67;98.81;101789.03;5056760;28;20039;-72
2021/06/14 01:48:18;;;;;;;7.43;4.15;;;;;;;13.55;99.33;101789.09;5065579;28;20036;-72
2021/06/14 01:50:45;;;;;;;7.18;4.10;;;;;;;13.46;99.49;101777.66;5071797;28;20063;-72
2021/06/14 01:53:12;;;;;;;11.07;4.47;;;;;;;13.63;98.58;101773.88;5075688;28;20031;-72
2021/06/14 01:55:39;;;;;;;8.93;4.55;;;;;;;13.70;98.74;101777.53;5078747;28;20067;-72
2021/06/14 01:58:06;;;;;;;8.93;4.55;;;;;;;13.77;98.54;101772.28;5079854;28;20177;-72
2021/06/14 02:00:49;;;;;;;8.50;4.78;;;;;;;13.63;98.80;101780.03;5059052;28;20111;-72
2021/06/14 02:03:32;;;;;;;11.13;4.93;;;;;;;13.50;99.57;101767.72;5089951;28;20032;-72
2021/06/14 02:06:18;;;;;;;6.82;4.55;;;;;;;13.45;99.48;101765.28;5098798;28;20040;-72
2021/06/14 02:08:47;;;;;;;8.57;4.90;;;;;;;13.43;99.91;101771.00;5066541;28;20131;-72
2021/06/14 02:11:13;;;;;;;8.70;4.47;;;;;;;13.35;99.83;101771.97;5081531;28;20060;-72
2021/06/14 02:13:42;;;;;;;11.65;4.85;;;;;;;13.31;100.00;101773.78;5068788;28;20027;-72
2021/06/14 02:16:11;;;;;;;6.82;4.43;;;;;;;13.33;100.00;101768.03;5066080;28;20092;-72
2021/06/14 02:18:37;;;;;;;9.98;4.90;;;;;;;13.26;100.00;101768.63;5087790;28;20061;-72
2021/06/14 02:21:09;;;;;;;;;;;;;;;13.15;100.00;101759.44;5070040;28;20063;-71
2021/06/14 02:23:35;;;;;;;9.23;4.82;;;;;;;13.28;100.00;101766.34;5067394;28;20012;-72
2021/06/14 02:26:01;;;;;;;10.55;4.40;;;;;;;13.30;99.66;101757.88;5093760;28;20032;-72
2021/06/14 02:28:28;;;;;;;5.90;4.05;;;;;;;13.28;100.00;101752.03;5073367;28;20048;-72
2021/06/14 02:30:54;;;;;;;7.85;4.63;;;;;;;13.37;99.53;101749.97;5092108;28;20035;-72
2021/06/14 02:33:20;;;;;;;9.60;4.50;;;;;;;13.41;99.61;101745.44;5080775;28;20024;-72
2021/06/14 02:36:03;;;;;;;8.93;4.72;;;;;;;13.35;99.46;101736.00;5068461;28;20116;-72
2021/06/14 02:38:29;;;;;;;8.52;4.57;;;;;;;13.29;99.80;101737.38;5090914;28;20165;-72
2021/06/14 02:40:57;;;;;;;8.90;5.13;;;;;;;13.17;100.00;101730.13;5065355;28;20031;-72
2021/06/14 02:43:23;;;;;;;9.43;4.97;;;;;;;13.26;100.00;101727.25;5069906;28;20369;-72
2021/06/14 02:45:51;;;;;;;9.05;4.63;;;;;;;13.16;100.00;101733.16;5087723;28;20028;-71
2021/06/14 02:48:31;;;;;;;12.15;4.80;;;;;;;13.27;100.00;101742.34;5055244;28;20024;-72
2021/06/14 02:50:58;;;;;;;7.57;4.30;;;;;;;13.14;100.00;101746.25;5066008;28;20046;-72
2021/06/14 02:53:27;;;;;;;9.93;4.60;;;;;;;13.21;100.00;101746.44;5077871;28;20194;-72
2021/06/14 02:56:05;;;;;;;12.90;4.47;;;;;;;13.33;100.00;101743.69;5073661;28;20035;-72
2021/06/14 02:58:36;;;;;;;9.55;4.40;;;;;;;13.32;99.34;101742.09;5080742;28;20028;-72
2021/06/14 03:01:04;;;;;;;7.57;4.05;;;;;;;13.25;99.40;101726.47;5074519;28;20027;-72
2021/06/14 03:03:32;;;;;;;8.38;4.75;;;;;;;13.22;100.00;101735.25;5089652;28;20069;-72
2021/06/14 03:05:58;;;;;;;9.20;4.28;;;;;;;13.22;99.99;101729.09;5070684;28;20115;-72
2021/06/14 03:08:26;;;;;;;9.27;5.05;;;;;;;13.17;100.00;101743.63;5084223;28;20059;-72
2021/06/14 03:10:54;;;;;;;9.75;4.55;;;;;;;13.14;100.00;101752.44;5083251;28;20028;-72
2021/06/14 03:13:20;;;;;;;7.32;4.35;;;;;;;12.95;100.00;101748.78;5081580;28;20055;-71
2021/06/14 03:15:45;;;;;;;10.95;4.80;;;;;;;13.14;100.00;101746.25;5062572;28;20117;-72
2021/06/14 03:18:11;;;;;;;8.55;4.40;;;;;;;13.19;100.00;101754.91;5073176;28;20052;-72
2021/06/14 03:20:39;;;;;;;9.30;4.47;;;;;;;13.16;100.00;101746.69;5081040;28;20126;-72
2021/06/14 03:23:07;;;;;;;8.23;4.68;;;;;;;13.09;100.00;101746.47;5084798;28;20067;-72
2021/06/14 03:25:33;;;;;;;9.63;4.90;;;;;;;13.16;100.00;101749.41;5088354;28;20078;-72
2021/06/14 03:27:59;;;;;;;8.45;4.65;;;;;;;13.17;100.00;101740.94;5073691;28;20451;-72
2021/06/14 03:30:25;;;;;;;9.40;5.05;;;;;;;13.10;100.00;101737.25;5079831;28;20032;-72
2021/06/14 03:32:54;;;;;;;8.38;4.68;;;;;;;13.21;100.00;101752.66;5086931;28;20024;-72
2021/06/14 03:35:21;;;;;;;9.95;5.32;;;;;;;13.25;100.00;101734.59;5086476;28;20040;-72
2021/06/14 03:37:47;;;;;;;7.88;4.55;;;;;;;13.31;100.00;101743.25;5074166;28;20119;-72
2021/06/14 03:40:13;;;;;;;8.75;5.38;;;;;;;13.33;100.00;101738.28;5081514;28;20115;-72
2021/06/14 03:42:40;;;;;;;8.27;4.95;;;;;;;13.22;100.00;101735.25;5071418;28;20481;-73
2021/06/14 03:45:07;;;;;;;10.63;5.40;;;;;;;13.37;100.00;101736.44;5077167;28;20131;-73
2021/06/14 03:47:33;;;;;;;10.55;4.95;;;;;;;13.47;99.60;101727.81;5073408;28;20028;-72
2021/06/14 03:49:58;;;;;;;10.00;5.22;;;;;;;13.37;99.75;101722.91;5084565;28;20408;-73
2021/06/14 03:52:24;;;;;;;9.05;4.90;;;;;;;13.63;98.66;101723.19;5075685;28;20124;-72
2021/06/14 03:54:50;;;;;;;13.40;5.53;;;;;;;13.71;97.29;101730.38;5084838;28;20032;-72
2021/06/14 03:57:15;;;;;;;8.10;4.88;;;;;;;13.52;99.28;101722.94;5089075;28;20752;-73
2021/06/14 03:59:41;;;;;;;9.23;4.93;;;;;;;13.62;99.47;101724.34;5087587;28;20082;-72
2021/06/14 04:02:06;;;;;;;10.15;4.30;;;;;;;13.82;98.04;101730.63;5069235;28;20024;-73
2021/06/14 04:07:07;;;;;;;11.82;5.30;;;;;;;13.78;97.48;101708.88;5056852;28;20402;-72
2021/06/14 04:09:33;;;;;;;12.10;4.90;;;;;;;13.93;97.39;101710.81;5080270;28;20130;-72
2021/06/14 04:12:03;;;;;;;8.02;4.88;;;;;;;14.08;96.55;101703.78;5073620;28;20177;-72
2021/06/14 04:14:29;;;;;;;9.80;5.07;;;;;;;13.92;97.66;101708.44;5066337;28;20047;-72
2021/06/14 04:16:55;;;;;;;7.15;4.95;;;;;;;13.88;98.43;101707.59;5076470;28;20068;-72
2021/06/14 04:19:21;;;;;;;8.63;4.85;;;;;;;13.86;97.42;101717.97;5076948;28;20440;-74
2021/06/14 04:21:46;;;;;;;12.20;4.95;;;;;;;13.92;98.41;101717.34;5074135;28;20063;-74
2021/06/14 04:24:12;;;;;;;8.68;4.55;;;;;;;13.98;97.83;101723.28;5084857;28;20047;-74
2021/06/14 04:26:38;;;;;;;9.45;4.28;;;;;;;14.26;96.32;101721.25;5073539;28;20031;-74
2021/06/14 04:29:04;;;;;;;8.30;4.47;;;;;;;14.20;96.50;101718.03;5092000;28;20620;-74
2021/06/14 04:31:30;;;;;;;8.18;4.30;;;;;;;14.17;96.93;101720.63;5091331;28;20464;-74
2021/06/14 04:33:56;;;;;;;7.57;4.53;;;;;;;14.24;96.32;101724.31;5087714;28;20039;-73
2021/06/14 04:36:21;;;;;;;8.52;4.60;;;;;;;14.29;95.79;101725.97;5076625;28;20036;-74
2021/06/14 04:38:47;;;;;;;14.52;4.68;;;;;;;14.41;96.68;101726.66;5082659;28;20016;-73
2021/06/14 04:41:12;;;;;;;7.88;4.35;;;;;;;14.46;96.17;101731.78;5069809;28;20070;-74
2021/06/14 04:43:38;;;;;;;10.05;3.90;;;;;;;14.64;95.53;101734.09;5076615;28;20060;-74
2021/06/14 04:46:03;;;;;;;5.75;4.32;;;;;;;14.48;96.67;101732.22;5083881;28;20036;-74
2021/06/14 04:48:29;;;;;;;10.43;4.13;;;;;;;14.82;94.90;101737.97;5068245;28;20472;-74
2021/06/14 04:50:55;;;;;;;7.22;4.28;;;;;;;14.81;94.75;101741.81;5087850;28;20036;-74
2021/06/14 04:53:20;;;;;;;7.15;3.63;;;;;;;14.83;95.16;101740.31;5091479;28;20028;-73
2021/06/14 04:55:46;;;;;;;9.30;4.20;;;;;;;14.85;92.78;101738.03;5086675;28;20408;-73
2021/06/14 04:58:11;;;;;;;9.82;4.53;;;;;;;15.01;92.03;101741.47;5066160;28;20024;-74
2021/06/14 05:00:37;;;;;;;8.45;4.05;;;;;;;15.12;91.80;101749.81;5083119;28;20036;-73
2021/06/14 05:03:03;;;;;;;6.20;3.95;;;;;;;15.24;90.27;101746.94;5085914;28;20505;-73
2021/06/14 05:05:29;;;;;;;7.45;4.45;;;;;;;15.15;90.02;101752.63;5089823;28;20033;-73
2021/06/14 05:07:54;;;;;;;6.30;3.83;;;;;;;15.43;89.59;101744.22;5086881;28;20031;-73
2021/06/14 05:10:20;;;;;;;8.68;3.83;;;;;;;15.63;88.13;101744.97;5078299;28;20031;-73
2021/06/14 05:12:46;;;;;;;7.25;4.10;;;;;;;15.78;87.66;101742.13;5085999;28;20105;-73
2021/06/14 05:15:12;;;;;;;6.68;3.47;;;;;;;16.62;83.72;101753.56;5076168;28;20097;-73
2021/06/14 05:17:38;;;;;;;8.68;3.60;;;;;;;17.76;78.84;101746.31;5082107;28;20035;-73
2021/06/14 05:20:04;;;;;;;8.30;3.35;;;;;;;18.60;73.44;101748.84;5081822;28;20036;-73
2021/06/14 05:22:30;;;;;;;6.32;3.20;;;;;;;19.39;69.65;101742.53;5077256;28;20439;-73
2021/06/14 05:24:55;;;;;;;7.95;3.40;;;;;;;20.26;67.46;101741.00;5078137;28;20038;-73
2021/06/14 05:27:21;;;;;;;12.48;3.00;;;;;;;20.30;64.88;101739.84;5090938;28;20032;-73
2021/06/14 05:29:46;;;;;;;8.50;2.85;;;;;;;20.12;64.95;101744.53;5078515;28;20032;-73
2021/06/14 05:32:11;;;;;;;7.75;2.80;;;;;;;20.37;64.28;101741.75;5078807;28;20628;-74
2021/06/14 05:34:37;;;;;;;4.57;2.60;;;;;;;21.02;62.84;101743.94;5082602;28;20377;-73
2021/06/14 05:37:03;;;;;;;5.50;2.42;;;;;;;21.28;59.74;101741.44;5069717;28;20029;-73
2021/06/14 05:39:28;;;;;;;7.18;2.28;;;;;;;21.32;59.35;101741.41;5068542;28;20484;-73
2021/06/14 05:41:54;;;;;;;4.10;2.20;;;;;;;21.44;58.91;101721.75;5076116;28;20918;-73
2021/06/14 05:44:20;;;;;;;7.63;2.50;;;;;;;21.30;59.06;101717.13;5079139;28;20081;-73
2021/06/14 05:46:45;;;;;;;5.80;2.40;;;;;;;21.37;59.52;101717.09;5073337;28;20060;-73
2021/06/14 05:49:11;;;;;;;4.55;2.30;;;;;;;22.10;58.03;101734.16;5072935;28;20066;-72
2021/06/14 05:51:38;;;;;;;6.72;2.70;;;;;;;21.74;57.33;101734.84;5088094;28;20056;-73
2021/06/14 05:56:37;;;;;;;5.57;2.47;;;;;;;21.06;60.49;101726.28;4980007;28;20050;-72
2021/06/14 05:59:05;;;;;;;9.25;2.42;;;;;;;21.41;59.90;101717.06;4988312;28;20046;-73
2021/06/14 06:01:31;;;;;;;3.63;2.13;;;;;;;21.29;60.64;101709.31;4982834;28;20400;-73
2021/06/14 06:03:56;;;;;;;3.10;2.00;;;;;;;21.70;61.12;101717.66;4981663;28;20050;-73
2021/06/14 06:06:22;;;;;;;5.60;2.30;;;;;;;22.15;57.55;101719.19;4989297;28;20521;-73
2021/06/14 06:08:47;;;;;;;6.45;2.17;;;;;;;22.57;56.27;101707.78;4985179;28;20066;-73
2021/06/14 06:11:13;;;;;;;5.60;1.75;;;;;;;22.58;56.67;101711.31;4965017;28;20038;-74
2021/06/14 06:13:38;;;;;;;6.05;1.95;;;;;;;22.93;55.14;101722.66;4986316;28;20042;-74
2021/06/14 06:16:05;;;;;;;3.47;1.70;;;;;;;23.17;54.17;101715.25;4967505;28;20022;-74
2021/06/14 06:18:30;;;;;;;5.40;1.77;;;;;;;23.11;53.76;101722.41;4988780;28;20036;-73
2021/06/14 06:20:56;;;;;;;3.03;1.45;;;;;;;22.79;53.12;101709.09;4984653;28;20026;-73
2021/06/14 06:23:21;;;;;;;3.45;1.67;;;;;;;22.71;54.36;101718.59;4988382;28;20025;-73
2021/06/14 06:25:47;;;;;;;3.38;1.90;;;;;;;22.88;55.54;101717.59;4993792;28;20076;-73
2021/06/14 06:28:12;;;;;;;3.53;1.90;;;;;;;23.34;54.35;101710.72;4988402;28;20045;-74
2021/06/14 06:30:38;;;;;;;4.72;2.10;;;;;;;23.20;52.94;101709.72;4987060;28;20065;-73
2021/06/14 06:33:10;;;;;;;9.52;2.17;;;;;;;23.42;51.23;101703.91;4990905;28;20065;-73
2021/06/14 06:35:37;;;;;;;5.13;2.30;;;;;;;22.80;51.99;101710.63;4989192;28;20026;-73
2021/06/14 06:38:03;;;;;;;7.57;2.15;;;;;;;22.23;54.06;101706.97;4986373;28;20061;-73
2021/06/14 06:40:28;;;;;;;4.88;2.08;;;;;;;22.38;53.78;101702.88;4981650;28;20057;-74
2021/06/14 06:42:56;;;;;;;6.32;2.42;;;;;;;21.98;53.93;101693.50;4986172;28;20034;-73
2021/06/14 06:45:23;;;;;;;3.85;2.45;;;;;;;21.66;55.76;101690.22;4968262;28;20462;-73
2021/06/14 06:47:50;;;;;;;8.27;2.70;;;;;;;21.70;56.56;101687.47;4994010;28;20109;-73
2021/06/14 06:50:15;;;;;;;7.20;2.42;;;;;;;21.65;56.83;101683.19;4989262;28;20038;-73
2021/06/14 06:52:41;;;;;;;7.20;2.28;;;;;;;21.41;59.00;101679.47;4972319;28;20410;-73
2021/06/14 06:55:09;;;;;;;6.20;3.08;;;;;;;21.88;57.35;101680.66;4987981;28;20038;-73
2021/06/14 06:57:36;;;;;;;6.82;3.30;;;;;;;21.66;58.75;101673.00;4990505;28;20038;-73
2021/06/14 07:00:04;;;;;;;8.70;3.05;;;;;;;21.31;60.20;101663.09;4989193;28;20042;-73
2021/06/14 07:02:30;;;;;;;11.43;3.13;;;;;;;21.32;59.70;101673.66;4986494;28;20570;-73
2021/06/14 07:04:55;;;;;;;8.70;2.88;;;;;;;21.52;61.68;101665.69;4987482;28;20116;-73
2021/06/14 07:07:21;;;;;;;5.30;2.78;;;;;;;21.98;59.71;101668.03;4989396;28;20042;-73
2021/06/14 07:09:46;;;;;;;6.70;2.80;;;;;;;21.74;59.79;101661.56;4972317;28;20062;-73
2021/06/14 07:12:12;;;;;;;6.97;2.72;;;;;;;21.84;59.51;101665.41;4984005;28;20541;-73
2021/06/14 07:14:37;;;;;;;7.95;3.10;;;;;;;22.23;59.36;101652.84;4989139;28;20044;-73
2021/06/14 07:17:03;;;;;;;10.73;3.50;;;;;;;22.19;59.35;101651.31;4983721;28;20411;-73
2021/06/14 07:19:28;;;;;;;6.03;2.72;;;;;;;22.45;58.72;101648.66;4989278;28;20053;-73
2021/06/14 07:21:55;;;;;;;8.07;3.35;;;;;;;22.45;56.89;101647.91;4991794;28;20021;-73
2021/06/14 07:24:20;;;;;;;9.20;3.30;;;;;;;22.79;57.04;101645.09;4985855;28;20042;-73
2021/06/14 07:26:46;;;;;;;8.32;3.28;;;;;;;23.12;55.97;101642.28;4990245;28;20065;-73
2021/06/14 07:29:12;;;;;;;7.90;3.20;;;;;;;23.46;55.49;101642.13;4988932;28;20060;-73
2021/06/14 07:31:37;;;;;;;10.45;3.22;;;;;;;23.11;55.04;101637.19;4990017;28;20041;-73
2021/06/14 07:34:05;;;;;;;5.40;2.90;;;;;;;23.22;55.91;101633.09;4979758;28;20523;-73
2021/06/14 07:36:31;;;;;;;5.72;2.88;;;;;;;23.46;54.40;101627.63;4953015;28;20132;-73
2021/06/14 07:38:57;;;;;;;8.93;2.80;;;;;;;23.01;56.10;101629.88;4986402;28;20756;-73
2021/06/14 07:41:23;;;;;;;12.75;3.65;;;;;;;23.29;55.57;101629.44;4986581;28;20093;-73
2021/06/14 07:43:50;;;;;;;7.97;3.08;;;;;;;23.56;54.51;101626.63;4967345;28;20026;-73
2021/06/14 07:46:16;;;;;;;11.18;3.63;;;;;;;23.39;54.51;101619.47;4987420;28;20027;-73
2021/06/14 07:48:42;;;;;;;8.43;3.15;;;;;;;23.14;54.95;101619.84;4987383;28;20034;-74
2021/06/14 07:51:09;;;;;;;10.23;3.53;;;;;;;23.79;54.94;101624.66;4993657;28;20041;-73
2021/06/14 07:53:35;;;;;;;6.65;3.50;;;;;;;23.82;54.24;101623.81;4990776;28;20486;-73
2021/06/14 07:56:02;;;;;;;6.97;3.38;;;;;;;23.72;53.21;101616.53;4989620;28;20034;-73
2021/06/14 07:58:28;;;;;;;11.30;3.70;;;;;;;23.97;53.10;101614.09;4992977;28;20030;-73
2021/06/14 08:00:54;;;;;;;6.35;3.45;;;;;;;24.01;52.19;101605.75;4988775;28;20026;-72
2021/06/14 08:03:22;;;;;;;8.88;3.67;;;;;;;24.40;52.21;101603.03;4992090;28;20096;-72
2021/06/14 08:05:48;;;;;;;7.45;3.30;;;;;;;24.80;50.94;101612.00;4991417;28;20014;-72
2021/06/14 08:08:14;;;;;;;7.50;3.30;;;;;;;24.89;50.75;101601.19;4992463;28;20045;-72
2021/06/14 08:10:45;;;;;;;7.93;3.17;;;;;;;24.97;50.28;101586.78;4985040;28;20038;-72
2021/06/14 08:13:11;;;;;;;11.88;3.60;;;;;;;25.38;48.99;101604.69;4992328;28;20041;-72
2021/06/14 08:15:38;;;;;;;7.18;3.33;;;;;;;24.95;48.74;101597.47;4987387;28;20242;-72
2021/06/14 08:26:05;;;;;;;8.70;3.30;;;;;;;24.96;48.81;101568.69;4995539;28;20038;-72
2021/06/14 08:28:30;;;;;;;6.57;3.20;;;;;;;25.20;49.09;101571.28;4996071;28;20034;-72
2021/06/14 08:30:56;;;;;;;14.80;3.80;;;;;;;24.69;48.63;101561.84;4980799;28;20150;-72
2021/06/14 08:33:21;;;;;;;7.57;3.55;;;;;;;25.12;48.91;101554.13;4992707;28;20491;-72
2021/06/14 08:35:47;;;;;;;6.05;3.22;;;;;;;25.46;48.21;101559.97;4992466;28;20045;-72
2021/06/14 08:38:12;;;;;;;9.07;3.65;;;;;;;25.45;49.01;101550.16;4988470;28;20034;-72
2021/06/14 08:40:38;;;;;;;12.52;3.33;;;;;;;25.12;48.71;101543.09;4993884;28;20371;-72
2021/06/14 08:43:05;;;;;;;7.82;3.20;;;;;;;25.49;48.89;101537.00;4990563;28;20026;-72
2021/06/14 08:45:41;;;;;;;9.85;3.80;;;;;;;25.23;48.86;101537.28;4988356;28;20153;-73
2021/06/14 08:48:09;;;;;;;7.90;3.30;;;;;;;25.45;49.75;101532.81;4991091;28;20042;-71
2021/06/14 08:50:38;;;;;;;7.97;3.42;;;;;;;25.99;49.82;101519.84;4977443;28;20018;-72
2021/06/14 08:53:05;;;;;;;8.27;3.38;;;;;;;26.48;47.12;101506.53;4988344;28;20054;-72
2021/06/14 08:55:31;;;;;;;8.13;3.33;;;;;;;26.72;45.84;101503.00;4990534;28;20092;-72
2021/06/14 08:57:57;;;;;;;6.88;3.05;;;;;;;26.99;45.73;101508.03;4994082;28;20054;-72
2021/06/14 09:00:25;;;;;;;8.38;4.00;;;;;;;25.86;45.54;101500.47;4990509;28;20038;-72
2021/06/14 09:02:51;;;;;;;7.45;3.05;;;;;;;25.96;46.56;101495.84;4992808;28;20053;-72
2021/06/14 09:05:20;;;;;;;12.82;3.35;;;;;;;26.06;46.52;101505.84;4990916;28;20030;-72
2021/06/14 09:07:50;;;;;;;8.80;3.63;;;;;;;26.36;46.19;101490.72;4987476;28;20069;-72
2021/06/14 09:10:28;;;;;;;8.18;3.38;;;;;;;26.73;46.46;101501.03;4987948;28;20030;-72
2021/06/14 09:12:55;;;;;;;7.60;3.20;;;;;;;26.33;46.88;101495.16;4992330;28;20395;-72
2021/06/14 09:15:27;;;;;;;8.00;3.42;;;;;;;26.81;45.06;101487.72;4992660;28;20069;-72
2021/06/14 09:17:56;;;;;;;8.40;3.25;;;;;;;27.02;46.49;101482.25;4992788;28;20030;-72
2021/06/14 09:20:24;;;;;;;7.70;3.20;;;;;;;27.53;45.50;101480.06;4996136;28;20034;-72
2021/06/14 09:22:50;;;;;;;8.02;3.28;;;;;;;27.87;43.47;101474.44;4990228;28;20042;-72
2021/06/14 09:25:17;;;;;;;13.35;3.53;;;;;;;28.08;44.07;101478.41;4990122;28;21553;-72
2021/06/14 09:27:51;;;;;;;8.02;3.33;;;;;;;28.04;43.42;101478.56;4992047;28;20032;-72
2021/06/14 09:30:32;;;;;;;10.68;3.15;;;;;;;27.96;43.04;101470.97;4990363;28;20026;-72
2021/06/14 09:32:57;;;;;;;;;;;;;;;27.41;42.95;101458.78;4989003;28;20107;-72
2021/06/14 09:35:27;;;;;;;9.07;3.90;;;;;;;26.77;43.97;101474.78;4995597;28;19997;-72
2021/06/14 09:38:01;;;;;;;8.45;3.42;;;;;;;26.61;45.48;101457.53;4992727;28;20029;-72
2021/06/14 09:40:30;;;;;;;9.50;3.78;;;;;;;27.09;46.13;101459.09;4971119;28;20069;-72
2021/06/14 09:42:56;;;;;;;8.43;3.20;;;;;;;27.45;44.48;101453.84;4990498;28;20038;-72
2021/06/14 09:45:22;;;;;;;10.35;3.75;;;;;;;27.54;45.00;101448.41;4988988;28;20042;-72
2021/06/14 09:47:49;;;;;;;10.57;3.50;;;;;;;28.04;45.50;101450.84;4978522;28;20026;-72
2021/06/14 09:50:23;;;;;;;10.27;3.28;;;;;;;28.53;44.17;101461.97;4981633;28;20031;-72
2021/06/14 09:53:11;;;;;;;9.27;3.40;;;;;;;28.59;42.73;101445.50;4975340;28;20061;-72
2021/06/14 09:55:38;;;;;;;7.85;2.90;;;;;;;28.83;43.90;101433.38;4973816;28;20062;-72
2021/06/14 09:58:29;;;;;;;8.57;3.30;;;;;;;29.11;41.90;101448.78;4983459;28;20418;-72
2021/06/14 10:01:04;;;;;;;7.28;2.90;;;;;;;28.78;41.99;101445.09;4971363;28;20579;-72
2021/06/14 10:03:50;;;;;;;6.38;3.30;;;;;;;29.29;42.19;101442.47;4981648;28;20026;-72
2021/06/14 10:06:30;;;;;;;10.15;3.20;;;;;;;29.42;41.73;101439.53;4979460;28;20065;-72
2021/06/14 10:08:56;;;;;;;5.60;3.13;;;;;;;29.68;40.98;101433.16;4959136;28;20121;-72
2021/06/14 10:11:21;;;;;;;10.55;3.35;;;;;;;28.62;42.05;101422.38;4986159;28;20542;-72
2021/06/14 10:13:49;;;;;;;9.52;3.05;;;;;;;28.72;42.55;101421.97;4975423;28;20022;-72
2021/06/14 10:16:21;;;;;;;8.35;3.10;;;;;;;28.74;42.51;101421.50;4990026;28;20100;-73
2021/06/14 10:18:58;;;;;;;7.50;3.13;;;;;;;28.48;42.25;101409.84;4989706;28;20511;-72
2021/06/14 10:21:29;;;;;;;7.55;3.17;;;;;;;28.39;44.19;101418.94;4979424;28;20042;-72
2021/06/14 10:23:57;;;;;;;7.15;2.83;;;;;;;29.17;43.33;101421.97;4981591;28;20122;-72
2021/06/14 10:26:24;;;;;;;10.90;3.45;;;;;;;29.35;42.97;101435.06;4977724;28;20030;-72
2021/06/14 10:28:50;;;;;;;5.00;2.83;;;;;;;29.45;41.99;101431.03;4978662;28;20094;-72
2021/06/14 10:31:16;;;;;;;6.50;2.83;;;;;;;29.57;41.14;101418.97;4983933;28;20034;-72
2021/06/14 10:33:46;;;;;;;4.70;2.63;;;;;;;29.84;40.97;101407.81;4989557;28;20042;-72
2021/06/14 10:36:13;;;;;;;6.43;2.93;;;;;;;29.96;40.01;101404.06;4991800;28;20042;-72
2021/06/14 10:38:40;;;;;;;11.15;2.60;;;;;;;30.12;41.02;101400.13;4985617;28;20026;-74
2021/06/14 10:41:06;;;;;;;5.38;2.63;;;;;;;30.36;40.21;101402.94;4985830;28;20117;-73
2021/06/14 10:43:32;;;;;;;7.50;3.10;;;;;;;30.23;40.91;101398.38;4977589;28;20659;-73
2021/06/14 10:45:59;;;;;;;9.20;3.22;;;;;;;30.66;40.83;101396.25;4985413;28;20070;-72
2021/06/14 10:48:30;;;;;;;12.18;2.67;;;;;;;30.88;39.33;101391.91;4985154;28;21299;-73
2021/06/14 10:50:57;;;;;;;4.30;2.40;;;;;;;31.04;38.99;101402.59;4972124;28;20041;-73
2021/06/14 10:53:25;;;;;;;5.30;2.78;;;;;;;30.99;38.56;101405.28;4973851;28;20093;-73
2021/06/14 10:55:51;;;;;;;6.03;2.72;;;;;;;31.17;38.33;101393.97;4972045;28;20030;-72
2021/06/14 10:58:18;;;;;;;6.95;2.83;;;;;;;31.56;38.19;101392.66;4979634;28;20034;-73
2021/06/14 11:00:44;;;;;;;8.77;2.50;;;;;;;31.44;38.76;101393.72;4984165;28;20034;-74
2021/06/14 11:03:10;;;;;;;5.00;2.47;;;;;;;31.36;38.46;101395.31;4990345;28;20426;-75
2021/06/14 11:05:44;;;;;;;6.18;2.65;;;;;;;31.37;37.75;101394.09;4990525;28;20038;-75
2021/06/14 11:08:18;;;;;;;4.82;2.55;;;;;;;31.72;38.65;101394.19;4983394;28;20094;-75
2021/06/14 11:11:04;;;;;;;7.75;2.78;;;;;;;31.37;38.06;101394.09;4991828;28;20022;-74
2021/06/14 11:13:30;;;;;;;9.27;3.15;;;;;;;31.38;38.40;101394.88;4963035;28;20089;-76
2021/06/14 11:15:59;;;;;;;6.20;2.80;;;;;;;31.65;37.29;101373.03;4979008;28;20527;-75
2021/06/14 11:18:29;;;;;;;6.80;2.45;;;;;;;31.72;37.20;101386.59;4985937;28;20058;-74
2021/06/14 11:21:06;;;;;;;6.07;3.00;;;;;;;31.25;38.16;101389.56;4973962;28;20125;-74
2021/06/14 11:23:32;;;;;;;5.50;2.67;;;;;;;31.32;38.97;101385.63;4980891;28;20039;-74
2021/06/14 11:25:58;;;;;;;11.57;2.45;;;;;;;31.63;36.79;101392.25;4984050;28;20049;-74
2021/06/14 11:28:39;;;;;;;5.35;2.40;;;;;;;31.85;38.02;101389.81;4986736;28;20042;-75
2021/06/14 11:31:20;;;;;;;10.65;2.75;;;;;;;31.92;38.41;101378.28;4968885;28;20490;-74
2021/06/14 11:33:48;;;;;;;5.15;2.50;;;;;;;32.26;37.12;101373.97;4987323;28;20053;-74
2021/06/14 11:36:24;;;;;;;5.88;2.60;;;;;;;32.44;37.70;101372.94;4986044;28;20022;-74
2021/06/14 11:38:51;;;;;;;5.95;2.72;;;;;;;32.61;37.83;101371.91;4972790;28;20058;-74
2021/06/14 11:41:28;;;;;;;7.07;2.67;;;;;;;32.54;36.56;101363.94;4988274;28;20045;-74